Time;durP1;ratioP1;P1;durP2;ratioP2;P2;SDS_P1;SDS_P2;PMS_P1;PMS_P2;Temp;Humidity;BMP_temperature;BMP_pressure;BME280_temperature;BME280_humidity;BME280_pressure;Samples;Min_cycle;Max_cycle;Signal;HPM_P1;HPM_P2
2024/01/21 00:00:05;;;;;;;;;;;0.40;99.90;;;;;;4931945;28;19937;-66
2024/01/21 00:02:31;;;;;;;;;;;0.40;99.90;;;;;;4961721;28;19936;-66
2024/01/21 00:04:57;;;;;;;;;;;0.50;99.90;;;;;;4948934;28;20543;-65
2024/01/21 00:07:23;;;;;;;;;;;0.50;99.90;;;;;;4968269;28;19926;-65
2024/01/21 00:09:49;;;;;;;;;;;0.50;99.90;;;;;;4939925;28;19935;-66
2024/01/21 00:12:15;;;;;;;;;;;0.50;99.90;;;;;;4960735;28;19936;-66
2024/01/21 00:14:41;;;;;;;;;;;0.50;99.90;;;;;;4926355;28;19929;-66
2024/01/21 00:17:07;;;;;;;;;;;0.50;99.90;;;;;;4961461;28;20027;-66
2024/01/21 00:19:33;;;;;;;;;;;0.50;99.90;;;;;;4936533;28;19932;-65
2024/01/21 00:21:59;;;;;;;;;;;0.50;99.90;;;;;;4970336;28;19929;-65
2024/01/21 00:24:24;;;;;;;;;;;0.50;99.90;;;;;;4935575;28;20296;-65
2024/01/21 00:26:50;;;;;;;;;;;0.50;99.90;;;;;;4961577;28;19926;-65
2024/01/21 00:29:16;;;;;;;;;;;0.40;99.90;;;;;;4935910;28;20403;-66
2024/01/21 00:31:42;;;;;;;;;;;0.40;99.90;;;;;;4962874;28;19930;-66
2024/01/21 00:34:08;;;;;;;;;;;0.40;99.90;;;;;;4933293;28;19944;-66
2024/01/21 00:36:34;;;;;;;;;;;0.30;99.90;;;;;;4975445;28;19937;-66
2024/01/21 00:39:00;;;;;;;;;;;0.30;99.90;;;;;;4930197;28;19926;-66
2024/01/21 00:41:26;;;;;;;;;;;0.40;99.90;;;;;;4978955;28;19926;-66
2024/01/21 00:43:52;;;;;;;;;;;0.40;99.90;;;;;;4950286;28;20949;-66
2024/01/21 00:46:18;;;;;;;;;;;0.40;99.90;;;;;;4941742;28;19971;-67
2024/01/21 00:48:43;;;;;;;;;;;0.40;99.90;;;;;;4958598;28;20545;-66
2024/01/21 00:51:09;;;;;;;;;;;0.40;99.90;;;;;;4932595;28;19932;-67
2024/01/21 00:53:35;;;;;;;;;;;0.40;99.90;;;;;;4957600;28;19936;-66
2024/01/21 00:56:01;;;;;;;;;;;0.50;99.90;;;;;;4949168;28;19925;-67
2024/01/21 00:58:27;;;;;;;;;;;0.40;99.90;;;;;;4957964;28;19926;-67
2024/01/21 01:00:56;;;;;;;;;;;0.50;99.90;;;;;;4950528;28;19924;-67
2024/01/21 01:03:22;;;;;;;;;;;0.40;99.90;;;;;;4958412;28;19932;-67
2024/01/21 01:05:48;;;;;;;;;;;0.50;99.90;;;;;;4927767;28;19925;-66
2024/01/21 01:08:14;;;;;;;;;;;0.40;99.90;;;;;;4957491;28;20458;-66
2024/01/21 01:10:40;;;;;;;;;;;0.40;99.90;;;;;;4927888;28;19945;-66
2024/01/21 01:13:06;;;;;;;;;;;0.40;99.90;;;;;;4958686;28;19933;-68
2024/01/21 01:15:32;;;;;;;;;;;0.40;99.90;;;;;;4936505;28;19936;-66
2024/01/21 01:17:58;;;;;;;;;;;0.40;99.90;;;;;;4957618;28;19926;-66
2024/01/21 01:20:24;;;;;;;;;;;0.40;99.90;;;;;;4947475;28;19925;-66
2024/01/21 01:22:49;;;;;;;;;;;0.40;99.90;;;;;;4965385;28;19926;-66
2024/01/21 01:25:15;;;;;;;;;;;0.40;99.90;;;;;;4946837;28;19925;-66
2024/01/21 01:27:41;;;;;;;;;;;0.50;99.90;;;;;;4970034;28;22039;-67
2024/01/21 01:30:07;;;;;;;;;;;0.50;99.90;;;;;;4925958;28;19933;-66
2024/01/21 01:32:33;;;;;;;;;;;0.50;99.90;;;;;;4962987;28;19926;-67
2024/01/21 01:35:00;;;;;;;;;;;0.50;99.90;;;;;;4937228;28;19936;-67
2024/01/21 01:37:26;;;;;;;;;;;0.50;99.90;;;;;;4972081;28;20869;-66
2024/01/21 01:39:52;;;;;;;;;;;0.50;99.90;;;;;;4940135;28;19925;-67
2024/01/21 01:42:18;;;;;;;;;;;0.50;99.90;;;;;;4973865;28;19929;-66
2024/01/21 01:44:44;;;;;;;;;;;0.50;99.90;;;;;;4937850;28;19937;-66
2024/01/21 01:47:10;;;;;;;;;;;0.60;99.90;;;;;;4974966;28;19925;-66
2024/01/21 01:49:36;;;;;;;;;;;0.60;99.90;;;;;;4940227;28;20184;-66
2024/01/21 01:52:02;;;;;;;;;;;0.60;99.90;;;;;;4977154;28;19925;-67
2024/01/21 01:54:30;;;;;;;;;;;0.60;99.90;;;;;;4936850;28;19939;-68
2024/01/21 01:56:56;;;;;;;;;;;0.50;99.90;;;;;;4977618;28;19925;-66
2024/01/21 01:59:22;;;;;;;;;;;0.60;99.90;;;;;;4937005;28;20541;-66
2024/01/21 02:01:48;;;;;;;;;;;0.60;99.90;;;;;;4978785;28;19932;-66
2024/01/21 02:04:13;;;;;;;;;;;0.60;99.90;;;;;;4932037;28;19953;-65
2024/01/21 02:06:39;;;;;;;;;;;0.60;99.90;;;;;;4950255;28;20382;-66
2024/01/21 02:09:05;;;;;;;;;;;0.60;99.90;;;;;;4931226;28;19988;-66
2024/01/21 02:11:32;;;;;;;;;;;0.60;99.90;;;;;;4979533;28;19933;-66
2024/01/21 02:13:58;;;;;;;;;;;0.70;99.90;;;;;;4929868;28;21062;-66
2024/01/21 02:16:23;;;;;;;;;;;0.70;99.90;;;;;;4965171;28;20008;-67
2024/01/21 02:18:50;;;;;;;;;;;0.70;99.90;;;;;;4959333;28;20377;-64
2024/01/21 02:21:16;;;;;;;;;;;0.70;99.90;;;;;;4959306;28;19933;-66
2024/01/21 02:23:42;;;;;;;;;;;0.70;99.90;;;;;;4962790;28;20505;-65
2024/01/21 02:26:08;;;;;;;;;;;0.70;99.90;;;;;;4932513;28;19929;-66
2024/01/21 02:28:34;;;;;;;;;;;0.70;99.90;;;;;;4962247;28;19932;-67
2024/01/21 02:31:00;;;;;;;;;;;0.70;99.90;;;;;;4912135;28;20411;-65
2024/01/21 02:33:26;;;;;;;;;;;0.70;99.90;;;;;;4940757;28;19941;-66
2024/01/21 02:35:52;;;;;;;;;;;0.70;99.90;;;;;;4936723;28;20727;-67
2024/01/21 02:38:18;;;;;;;;;;;0.70;99.90;;;;;;4960582;28;20952;-66
2024/01/21 02:40:44;;;;;;;;;;;0.70;99.90;;;;;;4926402;28;19925;-66
2024/01/21 02:43:10;;;;;;;;;;;0.70;99.90;;;;;;4959671;28;19932;-66
2024/01/21 02:45:36;;;;;;;;;;;0.80;99.90;;;;;;4922204;28;20518;-66
2024/01/21 02:48:02;;;;;;;;;;;0.80;99.90;;;;;;4956993;28;19926;-66
2024/01/21 02:50:28;;;;;;;;;;;0.80;99.90;;;;;;4928652;28;19925;-66
2024/01/21 02:52:54;;;;;;;;;;;0.80;99.90;;;;;;4967194;28;20524;-67
2024/01/21 02:55:20;;;;;;;;;;;0.90;99.90;;;;;;4947464;28;19936;-66
2024/01/21 02:57:46;;;;;;;;;;;0.90;99.90;;;;;;4958928;28;20078;-66
2024/01/21 03:00:12;;;;;;;;;;;0.90;99.90;;;;;;4934767;28;19937;-66
2024/01/21 03:02:38;;;;;;;;;;;0.90;99.90;;;;;;4960555;28;20428;-66
2024/01/21 03:05:04;;;;;;;;;;;0.90;99.90;;;;;;4939761;28;19932;-65
2024/01/21 03:07:30;;;;;;;;;;;0.90;99.90;;;;;;4962908;28;19925;-66
2024/01/21 03:09:56;;;;;;;;;;;0.90;99.90;;;;;;4932414;28;19936;-65
2024/01/21 03:12:22;;;;;;;;;;;0.90;99.90;;;;;;4971129;28;21338;-67
2024/01/21 03:14:48;;;;;;;;;;;0.90;99.90;;;;;;4932189;28;19929;-66
2024/01/21 03:17:14;;;;;;;;;;;0.80;99.90;;;;;;4970600;28;19926;-66
2024/01/21 03:19:39;;;;;;;;;;;0.80;99.90;;;;;;4936522;28;19929;-66
2024/01/21 03:22:05;;;;;;;;;;;0.80;99.90;;;;;;4972494;28;19932;-66
2024/01/21 03:24:31;;;;;;;;;;;0.90;99.90;;;;;;4931730;28;19933;-70
2024/01/21 03:26:57;;;;;;;;;;;0.90;99.90;;;;;;4958946;28;20342;-66
2024/01/21 03:29:23;;;;;;;;;;;0.90;99.90;;;;;;4931756;28;19932;-66
2024/01/21 03:31:49;;;;;;;;;;;1.00;99.90;;;;;;4974172;28;19936;-66
2024/01/21 03:34:15;;;;;;;;;;;0.90;99.90;;;;;;4930036;28;19938;-66
2024/01/21 03:36:41;;;;;;;;;;;1.00;99.90;;;;;;4945102;28;19925;-66
2024/01/21 03:39:07;;;;;;;;;;;1.00;99.90;;;;;;4931681;28;20091;-66
2024/01/21 03:41:33;;;;;;;;;;;1.00;99.90;;;;;;4977944;28;19925;-67
2024/01/21 03:43:59;;;;;;;;;;;1.00;99.90;;;;;;4927104;28;19932;-66
2024/01/21 03:46:25;;;;;;;;;;;1.00;99.90;;;;;;4980270;28;19956;-66
2024/01/21 03:48:51;;;;;;;;;;;1.00;99.90;;;;;;4952150;28;20885;-65
2024/01/21 03:51:17;;;;;;;;;;;1.00;99.90;;;;;;4936868;28;19926;-66
2024/01/21 03:53:43;;;;;;;;;;;1.00;99.90;;;;;;4956546;28;20397;-66
2024/01/21 03:56:15;;;;;;;;;;;1.00;99.90;;;;;;4917523;28;19925;-67
2024/01/21 03:58:41;;;;;;;;;;;1.10;99.90;;;;;;4961015;28;19925;-66
2024/01/21 04:01:07;;;;;;;;;;;1.00;99.90;;;;;;4951400;28;20297;-67
2024/01/21 04:03:33;;;;;;;;;;;1.10;99.90;;;;;;4958125;28;19926;-66
2024/01/21 04:05:59;;;;;;;;;;;1.10;99.90;;;;;;4934853;28;20031;-67
2024/01/21 04:08:25;;;;;;;;;;;1.10;99.80;;;;;;4960618;28;19932;-66
2024/01/21 04:10:51;;;;;;;;;;;1.10;99.90;;;;;;4948181;28;22354;-67
2024/01/21 04:13:18;;;;;;;;;;;1.10;99.90;;;;;;4960175;28;19930;-65
2024/01/21 04:15:44;;;;;;;;;;;1.10;99.90;;;;;;4932897;28;19925;-66
2024/01/21 04:18:10;;;;;;;;;;;1.10;99.90;;;;;;4957696;28;19936;-66
2024/01/21 04:20:36;;;;;;;;;;;1.10;99.90;;;;;;4949495;28;19996;-68
2024/01/21 04:23:02;;;;;;;;;;;1.10;99.90;;;;;;4958188;28;19926;-65
2024/01/21 04:25:28;;;;;;;;;;;1.20;99.90;;;;;;4931097;28;20017;-65
2024/01/21 04:27:54;;;;;;;;;;;1.20;99.90;;;;;;4959738;28;19936;-66
2024/01/21 04:30:19;;;;;;;;;;;1.10;99.90;;;;;;4944895;28;19935;-66
2024/01/21 04:32:45;;;;;;;;;;;1.10;99.90;;;;;;4964415;28;19932;-66
2024/01/21 04:35:11;;;;;;;;;;;1.10;99.90;;;;;;4926487;28;20092;-66
2024/01/21 04:37:37;;;;;;;;;;;1.10;99.90;;;;;;4955791;28;20415;-66
2024/01/21 04:40:04;;;;;;;;;;;1.10;99.90;;;;;;4936708;28;19926;-66
2024/01/21 04:42:30;;;;;;;;;;;1.10;99.80;;;;;;4957402;28;19929;-66
2024/01/21 04:44:56;;;;;;;;;;;1.10;99.50;;;;;;4925663;28;19979;-66
2024/01/21 04:47:21;;;;;;;;;;;1.10;99.90;;;;;;4953015;28;20055;-67
2024/01/21 04:49:47;;;;;;;;;;;1.10;99.70;;;;;;4930700;28;19934;-65
2024/01/21 04:52:13;;;;;;;;;;;1.20;99.10;;;;;;4960326;28;22142;-66
2024/01/21 04:54:39;;;;;;;;;;;1.20;98.80;;;;;;4939309;28;19929;-65
2024/01/21 04:57:05;;;;;;;;;;;1.20;98.70;;;;;;4966721;28;19925;-66
2024/01/21 04:59:31;;;;;;;;;;;1.30;98.60;;;;;;4939480;28;19929;-66
2024/01/21 05:01:57;;;;;;;;;;;1.40;98.20;;;;;;4975277;28;20331;-67
2024/01/21 05:04:23;;;;;;;;;;;1.40;97.60;;;;;;4936121;28;20652;-67
2024/01/21 05:06:49;;;;;;;;;;;1.40;97.80;;;;;;4980127;28;19925;-66
2024/01/21 05:09:15;;;;;;;;;;;1.50;96.90;;;;;;4936420;28;20385;-66
2024/01/21 05:11:40;;;;;;;;;;;1.60;96.30;;;;;;4967167;28;20408;-66
2024/01/21 05:14:06;;;;;;;;;;;1.60;97.30;;;;;;4931676;28;20350;-66
2024/01/21 05:16:32;;;;;;;;;;;1.50;97.60;;;;;;4964608;28;19935;-66
2024/01/21 05:18:58;;;;;;;;;;;1.40;97.50;;;;;;4932156;28;19932;-67
2024/01/21 05:21:24;;;;;;;;;;;1.40;97.50;;;;;;4933893;28;19932;-66
2024/01/21 05:23:51;;;;;;;;;;;1.40;97.30;;;;;;4958762;28;20033;-66
2024/01/21 05:26:17;;;;;;;;;;;1.40;97.20;;;;;;4940933;28;19926;-67
2024/01/21 05:28:44;;;;;;;;;;;1.40;97.60;;;;;;4960250;28;19925;-65
2024/01/21 05:31:10;;;;;;;;;;;1.40;97.90;;;;;;4934835;28;19925;-68
2024/01/21 05:33:36;;;;;;;;;;;1.40;97.50;;;;;;4962245;28;19952;-67
2024/01/21 05:36:02;;;;;;;;;;;1.50;97.10;;;;;;4952625;28;20438;-66
2024/01/21 05:38:28;;;;;;;;;;;1.60;97.10;;;;;;4963728;28;19929;-67
2024/01/21 05:40:54;;;;;;;;;;;1.60;97.30;;;;;;4933056;28;21493;-66
2024/01/21 05:43:20;;;;;;;;;;;1.50;97.20;;;;;;4959871;28;19929;-67
2024/01/21 05:45:46;;;;;;;;;;;1.60;97.10;;;;;;4955253;28;20734;-66
2024/01/21 05:48:11;;;;;;;;;;;1.60;96.80;;;;;;4964261;28;21051;-66
2024/01/21 05:50:37;;;;;;;;;;;1.60;97.30;;;;;;4934692;28;21019;-67
2024/01/21 05:53:06;;;;;;;;;;;1.60;97.30;;;;;;4963257;28;19932;-66
2024/01/21 05:55:32;;;;;;;;;;;1.60;97.70;;;;;;4935646;28;20442;-66
2024/01/21 05:57:58;;;;;;;;;;;1.50;97.80;;;;;;4961785;28;20467;-66
2024/01/21 06:00:24;;;;;;;;;;;1.60;98.00;;;;;;4933808;28;19957;-66
2024/01/21 06:02:50;;;;;;;;;;;1.60;97.30;;;;;;4962359;28;19983;-67
2024/01/21 06:05:17;;;;;;;;;;;1.70;97.40;;;;;;4946717;28;20775;-65
2024/01/21 06:07:43;;;;;;;;;;;1.70;97.60;;;;;;4968236;28;19926;-66
2024/01/21 06:10:09;;;;;;;;;;;1.70;98.10;;;;;;4947521;28;21281;-66
2024/01/21 06:12:35;;;;;;;;;;;1.60;97.60;;;;;;4968682;28;19941;-66
2024/01/21 06:15:01;;;;;;;;;;;1.70;97.30;;;;;;4944534;28;19929;-67
2024/01/21 06:17:27;;;;;;;;;;;1.70;97.10;;;;;;4971861;28;19929;-67
2024/01/21 06:19:53;;;;;;;;;;;1.80;97.60;;;;;;4932834;28;20100;-65
2024/01/21 06:22:19;;;;;;;;;;;1.80;97.70;;;;;;4964138;28;19926;-66
2024/01/21 06:24:45;;;;;;;;;;;1.80;97.50;;;;;;4932961;28;20567;-67
2024/01/21 06:27:11;;;;;;;;;;;1.80;97.90;;;;;;4953125;28;19945;-66
2024/01/21 06:29:37;;;;;;;;;;;1.80;97.30;;;;;;4935009;28;19925;-66
2024/01/21 06:32:03;;;;;;;;;;;1.80;98.00;;;;;;4974200;28;19925;-66
2024/01/21 06:34:29;;;;;;;;;;;1.90;97.80;;;;;;4936965;28;19936;-66
2024/01/21 06:36:55;;;;;;;;;;;1.80;97.60;;;;;;4964425;28;19947;-67
2024/01/21 06:39:21;;;;;;;;;;;1.80;97.80;;;;;;4936879;28;19933;-67
2024/01/21 06:41:46;;;;;;;;;;;1.80;97.90;;;;;;4974399;28;20511;-66
2024/01/21 06:44:12;;;;;;;;;;;1.80;97.70;;;;;;4945149;28;19931;-66
2024/01/21 06:46:38;;;;;;;;;;;1.80;98.80;;;;;;4934555;28;20544;-67
2024/01/21 06:49:04;;;;;;;;;;;1.80;98.50;;;;;;4930714;28;19929;-66
2024/01/21 06:54:25;;;;;;;;;;;1.70;98.60;;;;;;4925884;28;20610;-68
2024/01/21 06:56:51;;;;;;;;;;;1.80;98.70;;;;;;4964007;28;19925;-68
2024/01/21 06:59:17;;;;;;;;;;;1.70;98.70;;;;;;4935692;28;19933;-67
2024/01/21 07:01:43;;;;;;;;;;;1.70;98.70;;;;;;4977701;28;19933;-69
2024/01/21 07:04:09;;;;;;;;;;;1.70;98.70;;;;;;4932644;28;19926;-66
2024/01/21 07:06:35;;;;;;;;;;;1.70;98.80;;;;;;4979333;28;19925;-67
2024/01/21 07:09:01;;;;;;;;;;;1.70;98.90;;;;;;4930637;28;19929;-66
2024/01/21 07:11:27;;;;;;;;;;;1.70;98.90;;;;;;4981330;28;20036;-67
2024/01/21 07:13:53;;;;;;;;;;;1.70;99.00;;;;;;4946665;28;20005;-68
2024/01/21 07:16:19;;;;;;;;;;;1.70;99.50;;;;;;4968447;28;19926;-66
2024/01/21 07:18:45;;;;;;;;;;;1.70;99.10;;;;;;4959803;28;19960;-66
2024/01/21 07:21:11;;;;;;;;;;;1.70;99.20;;;;;;4950260;28;20537;-66
2024/01/21 07:23:38;;;;;;;;;;;1.70;99.00;;;;;;4960639;28;19960;-66
2024/01/21 07:26:04;;;;;;;;;;;1.70;99.40;;;;;;4950605;28;19976;-65
2024/01/21 07:28:30;;;;;;;;;;;1.70;99.30;;;;;;4960897;28;21000;-66
2024/01/21 07:30:56;;;;;;;;;;;1.70;99.30;;;;;;4931805;28;19925;-68
2024/01/21 07:33:22;;;;;;;;;;;1.70;99.50;;;;;;4961218;28;20914;-66
2024/01/21 07:35:50;;;;;;;;;;;1.70;99.40;;;;;;4948801;28;20484;-65
2024/01/21 07:38:17;;;;;;;;;;;1.70;99.60;;;;;;4958914;28;19930;-66
2024/01/21 07:40:43;;;;;;;;;;;1.70;99.90;;;;;;4933749;28;19925;-67
2024/01/21 07:43:10;;;;;;;;;;;1.70;99.90;;;;;;4961146;28;19925;-67
2024/01/21 07:45:36;;;;;;;;;;;1.70;99.90;;;;;;4916319;28;19925;-67
2024/01/21 07:48:02;;;;;;;;;;;1.70;99.90;;;;;;4960176;28;20887;-66
2024/01/21 07:50:28;;;;;;;;;;;1.70;99.90;;;;;;4947454;28;19931;-67
2024/01/21 07:52:54;;;;;;;;;;;1.70;99.90;;;;;;4960969;28;20415;-67
2024/01/21 07:55:20;;;;;;;;;;;1.70;99.90;;;;;;4937335;28;19944;-67
2024/01/21 07:57:45;;;;;;;;;;;1.70;99.90;;;;;;4965539;28;19932;-67
2024/01/21 08:00:12;;;;;;;;;;;1.70;99.90;;;;;;4935255;28;20671;-66
2024/01/21 08:02:38;;;;;;;;;;;1.80;99.90;;;;;;4961683;28;19925;-66
2024/01/21 08:05:04;;;;;;;;;;;1.80;99.90;;;;;;4934648;28;20463;-68
2024/01/21 08:07:30;;;;;;;;;;;1.90;99.90;;;;;;4943317;28;19962;-67
2024/01/21 08:09:58;;;;;;;;;;;1.90;99.90;;;;;;4925445;28;19925;-67
2024/01/21 08:12:24;;;;;;;;;;;1.80;99.90;;;;;;4954636;28;20479;-67
2024/01/21 08:14:50;;;;;;;;;;;1.80;99.90;;;;;;4936486;28;19995;-67
2024/01/21 08:17:16;;;;;;;;;;;1.80;99.90;;;;;;4958659;28;19965;-67
2024/01/21 08:19:42;;;;;;;;;;;1.80;99.90;;;;;;4925605;28;19968;-67
2024/01/21 08:22:10;;;;;;;;;;;1.90;99.90;;;;;;4957950;28;19933;-66
2024/01/21 08:24:36;;;;;;;;;;;1.90;99.90;;;;;;4930335;28;20034;-67
2024/01/21 08:27:03;;;;;;;;;;;1.90;99.90;;;;;;4969974;28;20017;-66
2024/01/21 08:29:28;;;;;;;;;;;2.00;99.90;;;;;;4935442;28;19925;-67
2024/01/21 08:31:56;;;;;;;;;;;1.90;99.90;;;;;;4965082;28;20012;-66
2024/01/21 08:34:22;;;;;;;;;;;2.00;99.90;;;;;;4934264;28;19933;-67
2024/01/21 08:36:48;;;;;;;;;;;2.00;99.90;;;;;;4966634;28;19925;-68
2024/01/21 08:39:14;;;;;;;;;;;1.90;99.90;;;;;;4933422;28;19927;-65
2024/01/21 08:41:40;;;;;;;;;;;1.90;99.90;;;;;;4965112;28;19925;-67
2024/01/21 08:44:07;;;;;;;;;;;1.90;99.90;;;;;;4932844;28;19930;-66
2024/01/21 08:46:33;;;;;;;;;;;1.90;99.90;;;;;;4965857;28;19936;-67
2024/01/21 08:48:59;;;;;;;;;;;1.90;99.90;;;;;;4932412;28;19925;-67
2024/01/21 08:51:25;;;;;;;;;;;1.90;99.90;;;;;;4963597;28;19932;-67
2024/01/21 08:53:56;;;;;;;;;;;2.00;99.90;;;;;;4935373;28;20506;-67
2024/01/21 08:56:25;;;;;;;;;;;2.10;99.90;;;;;;4928987;28;19925;-67
2024/01/21 08:58:52;;;;;;;;;;;2.20;99.90;;;;;;4953582;28;20496;-66
2024/01/21 09:01:19;;;;;;;;;;;2.30;99.90;;;;;;4923773;28;19925;-67
2024/01/21 09:03:45;;;;;;;;;;;2.30;99.90;;;;;;4945603;28;19926;-67
2024/01/21 09:06:11;;;;;;;;;;;2.40;99.90;;;;;;4932949;28;19932;-67
2024/01/21 09:08:37;;;;;;;;;;;2.40;99.90;;;;;;4978743;28;20411;-67
2024/01/21 09:11:03;;;;;;;;;;;2.40;99.90;;;;;;4917592;28;20524;-67
2024/01/21 09:13:29;;;;;;;;;;;2.40;99.90;;;;;;4945642;28;20455;-67
2024/01/21 09:15:55;;;;;;;;;;;2.40;99.90;;;;;;4914858;28;19930;-67
2024/01/21 09:18:22;;;;;;;;;;;2.40;99.90;;;;;;4958598;28;19926;-66
2024/01/21 09:20:48;;;;;;;;;;;2.40;99.90;;;;;;4932724;28;21151;-66
2024/01/21 09:23:14;;;;;;;;;;;2.40;99.90;;;;;;4963390;28;19925;-66
2024/01/21 09:25:40;;;;;;;;;;;2.40;99.90;;;;;;4936845;28;19925;-67
2024/01/21 09:28:06;;;;;;;;;;;2.40;99.90;;;;;;4962339;28;21174;-68
2024/01/21 09:30:32;;;;;;;;;;;2.50;99.90;;;;;;4954237;28;19929;-67
2024/01/21 09:32:58;;;;;;;;;;;2.50;99.90;;;;;;4965583;28;19932;-67
2024/01/21 09:35:24;;;;;;;;;;;2.60;99.90;;;;;;4934943;28;20530;-66
2024/01/21 09:37:50;;;;;;;;;;;2.70;99.90;;;;;;4960020;28;19937;-66
2024/01/21 09:40:17;;;;;;;;;;;2.70;99.90;;;;;;4934100;28;19925;-67
2024/01/21 09:42:43;;;;;;;;;;;2.80;99.90;;;;;;4960579;28;21139;-67
2024/01/21 09:45:10;;;;;;;;;;;2.80;99.90;;;;;;4928673;28;19976;-67
2024/01/21 09:47:37;;;;;;;;;;;2.90;99.90;;;;;;4965547;28;19931;-68
2024/01/21 09:50:03;;;;;;;;;;;2.90;99.90;;;;;;4939374;28;19925;-67
2024/01/21 09:52:29;;;;;;;;;;;2.90;99.90;;;;;;4974560;28;19930;-66
2024/01/21 09:54:55;;;;;;;;;;;2.90;99.90;;;;;;4949103;28;19936;-68
2024/01/21 09:57:21;;;;;;;;;;;2.90;99.90;;;;;;4965710;28;20048;-67
2024/01/21 09:59:48;;;;;;;;;;;2.90;99.90;;;;;;4940044;28;20467;-66
2024/01/21 10:02:17;;;;;;;;;;;2.90;99.90;;;;;;4967041;28;19932;-67
2024/01/21 10:04:44;;;;;;;;;;;3.00;99.90;;;;;;4934916;28;20347;-67
2024/01/21 10:07:11;;;;;;;;;;;3.00;99.90;;;;;;4968340;28;19948;-67
2024/01/21 10:09:37;;;;;;;;;;;3.10;99.90;;;;;;4937428;28;19925;-67
2024/01/21 10:12:04;;;;;;;;;;;3.00;99.90;;;;;;4965672;28;19937;-67
2024/01/21 10:14:33;;;;;;;;;;;3.10;99.90;;;;;;4943529;28;19936;-67
2024/01/21 10:16:59;;;;;;;;;;;3.20;99.90;;;;;;4979136;28;20181;-67
2024/01/21 10:19:31;;;;;;;;;;;3.20;99.90;;;;;;4939657;28;20580;-67
2024/01/21 10:22:06;;;;;;;;;;;3.30;99.90;;;;;;4951820;28;19948;-67
2024/01/21 10:24:32;;;;;;;;;;;3.30;99.90;;;;;;4940759;28;20273;-67
2024/01/21 10:26:58;;;;;;;;;;;3.40;99.90;;;;;;4966443;28;20875;-67
2024/01/21 10:29:25;;;;;;;;;;;3.40;99.90;;;;;;4939401;28;19925;-70
2024/01/21 10:31:51;;;;;;;;;;;3.50;99.90;;;;;;4967998;28;19929;-69
2024/01/21 10:34:17;;;;;;;;;;;3.50;99.90;;;;;;4933923;28;19936;-69
2024/01/21 10:36:43;;;;;;;;;;;3.50;99.90;;;;;;4958762;28;19933;-69
2024/01/21 10:39:16;;;;;;;;;;;3.50;99.90;;;;;;4934668;28;19929;-67
2024/01/21 10:41:43;;;;;;;;;;;3.50;99.90;;;;;;4967673;28;19925;-69
2024/01/21 10:44:09;;;;;;;;;;;3.60;99.90;;;;;;4938629;28;20680;-70
2024/01/21 10:46:37;;;;;;;;;;;3.60;99.90;;;;;;4966053;28;20460;-70
2024/01/21 10:49:03;;;;;;;;;;;3.60;99.90;;;;;;4937011;28;20009;-69
2024/01/21 10:51:30;;;;;;;;;;;3.60;99.90;;;;;;4959423;28;19981;-70
2024/01/21 10:53:56;;;;;;;;;;;3.70;99.90;;;;;;4916707;28;19948;-69
2024/01/21 10:56:25;;;;;;;;;;;3.70;99.90;;;;;;4923360;28;19934;-69
2024/01/21 10:58:51;;;;;;;;;;;3.70;99.90;;;;;;4953816;28;19925;-69
2024/01/21 11:01:17;;;;;;;;;;;3.70;99.90;;;;;;4924073;28;20223;-69
2024/01/21 11:03:44;;;;;;;;;;;3.80;99.90;;;;;;4962879;28;20620;-70
2024/01/21 11:06:11;;;;;;;;;;;3.80;99.90;;;;;;4935217;28;20576;-69
2024/01/21 11:08:40;;;;;;;;;;;3.80;99.90;;;;;;4959091;28;19925;-69
2024/01/21 11:11:06;;;;;;;;;;;3.80;99.90;;;;;;4934583;28;20195;-70
2024/01/21 11:13:58;;;;;;;;;;;3.80;99.90;;;;;;4963063;28;21041;-69
2024/01/21 11:16:30;;;;;;;;;;;3.90;99.90;;;;;;4912675;28;19933;-72
2024/01/21 11:19:04;;;;;;;;;;;3.90;99.90;;;;;;4931654;28;19929;-72
2024/01/21 11:21:31;;;;;;;;;;;3.90;99.90;;;;;;4950431;28;20599;-71
2024/01/21 11:24:03;;;;;;;;;;;3.90;99.90;;;;;;4931778;28;19936;-71
2024/01/21 11:26:30;;;;;;;;;;;3.90;99.90;;;;;;4965497;28;19929;-72
2024/01/21 11:29:05;;;;;;;;;;;4.00;99.90;;;;;;4929656;28;20408;-72
2024/01/21 11:31:32;;;;;;;;;;;4.00;99.90;;;;;;4965926;28;20964;-72
2024/01/21 11:34:05;;;;;;;;;;;4.00;99.90;;;;;;4928636;28;19948;-71
2024/01/21 11:36:33;;;;;;;;;;;4.10;99.90;;;;;;4970178;28;20538;-70
2024/01/21 11:39:01;;;;;;;;;;;4.10;99.90;;;;;;4930536;28;20435;-71
2024/01/21 11:41:35;;;;;;;;;;;4.10;99.90;;;;;;4977126;28;20544;-71
2024/01/21 11:44:21;;;;;;;;;;;4.20;99.90;;;;;;4931061;28;20498;-69
2024/01/21 11:46:47;;;;;;;;;;;4.20;99.90;;;;;;4949657;28;19952;-71
2024/01/21 11:49:13;;;;;;;;;;;4.20;99.90;;;;;;4929666;28;20471;-70
2024/01/21 11:51:39;;;;;;;;;;;4.20;99.90;;;;;;4965058;28;19925;-71
2024/01/21 11:54:06;;;;;;;;;;;4.20;99.90;;;;;;4933777;28;20320;-70
2024/01/21 11:56:32;;;;;;;;;;;4.20;99.90;;;;;;4964368;28;20221;-71
2024/01/21 11:58:58;;;;;;;;;;;4.10;99.90;;;;;;4930081;28;20530;-70
2024/01/21 12:01:26;;;;;;;;;;;4.10;99.90;;;;;;4983670;28;19972;-71
2024/01/21 12:03:54;;;;;;;;;;;4.10;99.90;;;;;;4947935;28;20304;-70
2024/01/21 12:06:21;;;;;;;;;;;4.20;99.90;;;;;;4927053;28;19925;-70
2024/01/21 12:08:47;;;;;;;;;;;4.20;99.90;;;;;;4961601;28;20337;-71
2024/01/21 12:11:13;;;;;;;;;;;4.20;99.90;;;;;;4938212;28;19948;-69
2024/01/21 12:13:40;;;;;;;;;;;4.10;99.90;;;;;;4962802;28;19929;-69
2024/01/21 12:16:09;;;;;;;;;;;4.10;99.90;;;;;;4934072;28;20554;-69
2024/01/21 12:18:38;;;;;;;;;;;4.10;99.90;;;;;;4963912;28;19945;-69
2024/01/21 12:21:04;;;;;;;;;;;4.10;99.90;;;;;;4938228;28;19925;-70
2024/01/21 12:23:31;;;;;;;;;;;4.00;99.90;;;;;;4960625;28;19929;-69
2024/01/21 12:25:56;;;;;;;;;;;4.00;99.90;;;;;;4934306;28;19925;-70
2024/01/21 12:28:23;;;;;;;;;;;4.00;99.90;;;;;;4957936;28;19941;-69
2024/01/21 12:30:50;;;;;;;;;;;4.10;99.90;;;;;;4929979;28;20565;-69
2024/01/21 12:33:16;;;;;;;;;;;4.10;99.90;;;;;;4964352;28;19930;-70
2024/01/21 12:35:42;;;;;;;;;;;4.10;99.90;;;;;;4931622;28;21278;-69
2024/01/21 12:38:09;;;;;;;;;;;4.10;99.90;;;;;;4957413;28;19925;-69
2024/01/21 12:40:35;;;;;;;;;;;4.10;99.90;;;;;;4935039;28;19929;-70
2024/01/21 12:43:00;;;;;;;;;;;4.10;99.90;;;;;;4964954;28;19926;-69
2024/01/21 12:45:29;;;;;;;;;;;4.10;99.90;;;;;;4931620;28;19931;-69
2024/01/21 12:47:55;;;;;;;;;;;4.10;99.90;;;;;;4940531;28;20352;-70
2024/01/21 12:50:21;;;;;;;;;;;4.10;99.90;;;;;;4934184;28;19925;-70
2024/01/21 12:52:48;;;;;;;;;;;4.20;99.90;;;;;;4967003;28;20885;-70
2024/01/21 12:55:14;;;;;;;;;;;4.20;99.90;;;;;;4945437;28;19963;-70
2024/01/21 12:57:40;;;;;;;;;;;4.20;99.90;;;;;;4962295;28;19930;-69
2024/01/21 13:00:06;;;;;;;;;;;4.20;99.90;;;;;;4937053;28;20189;-69
2024/01/21 13:02:34;;;;;;;;;;;4.20;99.90;;;;;;4965999;28;19929;-70
2024/01/21 13:05:00;;;;;;;;;;;4.20;99.90;;;;;;4930605;28;19929;-69
2024/01/21 13:07:27;;;;;;;;;;;4.20;99.90;;;;;;4951055;28;20410;-69
2024/01/21 13:09:53;;;;;;;;;;;4.20;99.90;;;;;;4934739;28;19937;-70
2024/01/21 13:12:19;;;;;;;;;;;4.30;99.90;;;;;;4960912;28;19933;-70
2024/01/21 13:14:45;;;;;;;;;;;4.30;99.90;;;;;;4944747;28;21014;-70
2024/01/21 13:17:11;;;;;;;;;;;4.30;99.90;;;;;;4966247;28;19929;-71
2024/01/21 13:19:37;;;;;;;;;;;4.40;99.90;;;;;;4935470;28;20005;-72
2024/01/21 13:22:06;;;;;;;;;;;4.40;99.90;;;;;;4959853;28;19925;-70
2024/01/21 13:24:35;;;;;;;;;;;4.40;99.90;;;;;;4940660;28;19940;-70
2024/01/21 13:27:09;;;;;;;;;;;4.40;99.90;;;;;;4955396;28;20945;-71
2024/01/21 13:32:20;;;;;;;;;;;4.40;99.90;;;;;;4966538;28;19932;-70
2024/01/21 13:34:47;;;;;;;;;;;4.30;99.90;;;;;;4935882;28;19930;-70
2024/01/21 13:37:14;;;;;;;;;;;4.40;99.90;;;;;;4966920;28;19940;-70
2024/01/21 13:39:40;;;;;;;;;;;4.40;99.90;;;;;;4934431;28;19925;-69
2024/01/21 13:42:06;;;;;;;;;;;4.40;99.90;;;;;;4962682;28;19933;-70
2024/01/21 13:44:32;;;;;;;;;;;4.40;99.90;;;;;;4914317;28;19925;-69
2024/01/21 13:46:58;;;;;;;;;;;4.50;99.90;;;;;;4953950;28;20371;-70
2024/01/21 13:49:24;;;;;;;;;;;4.50;99.90;;;;;;4934158;28;19980;-70
2024/01/21 13:51:51;;;;;;;;;;;4.60;99.90;;;;;;4960204;28;19948;-70
2024/01/21 13:54:18;;;;;;;;;;;4.60;99.90;;;;;;4936537;28;19936;-71
2024/01/21 13:56:45;;;;;;;;;;;4.70;99.90;;;;;;4961528;28;19937;-70
2024/01/21 13:59:11;;;;;;;;;;;4.80;99.90;;;;;;4935893;28;21188;-70
2024/01/21 14:01:37;;;;;;;;;;;4.80;99.90;;;;;;4966684;28;20092;-70
2024/01/21 14:04:03;;;;;;;;;;;4.80;99.90;;;;;;4933333;28;20458;-71
2024/01/21 14:06:29;;;;;;;;;;;4.80;99.90;;;;;;4981580;28;19936;-71
2024/01/21 14:08:55;;;;;;;;;;;4.90;99.90;;;;;;4938211;28;19925;-71
2024/01/21 14:11:21;;;;;;;;;;;4.90;99.90;;;;;;4987407;28;19929;-71
2024/01/21 14:13:48;;;;;;;;;;;4.90;99.90;;;;;;4961362;28;19933;-72
2024/01/21 14:16:13;;;;;;;;;;;4.90;99.90;;;;;;4942259;28;19933;-72
2024/01/21 14:18:39;;;;;;;;;;;4.90;99.90;;;;;;4962784;28;19925;-72
2024/01/21 14:21:05;;;;;;;;;;;5.00;99.90;;;;;;4923702;28;19933;-71
2024/01/21 14:23:31;;;;;;;;;;;5.00;99.90;;;;;;4960389;28;19932;-71
2024/01/21 14:26:00;;;;;;;;;;;5.00;99.90;;;;;;4932865;28;19926;-71
2024/01/21 14:28:28;;;;;;;;;;;5.00;99.90;;;;;;4963991;28;19925;-72
2024/01/21 14:30:54;;;;;;;;;;;5.00;99.90;;;;;;4922532;28;19936;-72